sensor_id;sensor_type;location;lat;lon;timestamp;P1;durP1;ratioP1;P2;durP2;ratioP2
84521;SDS011;74758;50.066;20.008;2023-12-20T00:01:11;5.50;;;4.30;;
84521;SDS011;74758;50.066;20.008;2023-12-20T00:03:14;5.50;;;4.40;;
84521;SDS011;74758;50.066;20.008;2023-12-20T00:05:15;5.70;;;4.30;;
84521;SDS011;74758;50.066;20.008;2023-12-20T00:07:18;4.80;;;4.00;;
84521;SDS011;74758;50.066;20.008;2023-12-20T00:09:20;6.70;;;4.50;;
84521;SDS011;74758;50.066;20.008;2023-12-20T00:11:22;6.30;;;4.60;;
84521;SDS011;74758;50.066;20.008;2023-12-20T00:13:24;4.60;;;3.80;;
84521;SDS011;74758;50.066;20.008;2023-12-20T00:15:26;6.50;;;4.50;;
84521;SDS011;74758;50.066;20.008;2023-12-20T00:17:28;6.50;;;5.00;;
84521;SDS011;74758;50.066;20.008;2023-12-20T00:19:31;6.50;;;4.60;;
84521;SDS011;74758;50.066;20.008;2023-12-20T00:23:37;5.70;;;4.50;;
84521;SDS011;74758;50.066;20.008;2023-12-20T00:25:40;5.20;;;3.70;;
84521;SDS011;74758;50.066;20.008;2023-12-20T00:27:43;5.40;;;3.80;;
84521;SDS011;74758;50.066;20.008;2023-12-20T00:29:47;5.50;;;4.50;;
84521;SDS011;74758;50.066;20.008;2023-12-20T00:31:52;4.70;;;3.80;;
84521;SDS011;74758;50.066;20.008;2023-12-20T00:33:54;5.70;;;4.50;;
84521;SDS011;74758;50.066;20.008;2023-12-20T00:37:59;7.20;;;5.00;;
84521;SDS011;74758;50.066;20.008;2023-12-20T00:40:01;5.70;;;4.90;;
84521;SDS011;74758;50.066;20.008;2023-12-20T00:42:05;5.30;;;4.30;;
84521;SDS011;74758;50.066;20.008;2023-12-20T00:44:07;6.10;;;4.90;;
84521;SDS011;74758;50.066;20.008;2023-12-20T00:46:10;5.30;;;4.20;;
84521;SDS011;74758;50.066;20.008;2023-12-20T00:48:14;4.60;;;3.90;;
84521;SDS011;74758;50.066;20.008;2023-12-20T00:50:16;5.50;;;4.20;;
84521;SDS011;74758;50.066;20.008;2023-12-20T00:52:18;5.40;;;4.20;;
84521;SDS011;74758;50.066;20.008;2023-12-20T00:54:21;7.00;;;4.50;;
84521;SDS011;74758;50.066;20.008;2023-12-20T00:56:23;5.80;;;4.30;;
84521;SDS011;74758;50.066;20.008;2023-12-20T00:58:25;5.50;;;4.00;;
84521;SDS011;74758;50.066;20.008;2023-12-20T01:00:28;4.90;;;3.90;;
84521;SDS011;74758;50.066;20.008;2023-12-20T01:02:30;5.00;;;3.80;;
84521;SDS011;74758;50.066;20.008;2023-12-20T01:04:31;5.00;;;4.10;;
84521;SDS011;74758;50.066;20.008;2023-12-20T01:06:33;4.80;;;3.90;;
84521;SDS011;74758;50.066;20.008;2023-12-20T01:08:36;5.30;;;4.10;;
84521;SDS011;74758;50.066;20.008;2023-12-20T01:10:39;5.00;;;4.00;;
84521;SDS011;74758;50.066;20.008;2023-12-20T01:12:41;5.80;;;4.40;;
84521;SDS011;74758;50.066;20.008;2023-12-20T01:14:44;5.70;;;4.10;;
84521;SDS011;74758;50.066;20.008;2023-12-20T01:16:47;5.60;;;4.10;;
84521;SDS011;74758;50.066;20.008;2023-12-20T01:18:50;5.70;;;4.80;;
84521;SDS011;74758;50.066;20.008;2023-12-20T01:20:53;5.20;;;3.90;;
84521;SDS011;74758;50.066;20.008;2023-12-20T01:22:55;5.20;;;4.10;;
84521;SDS011;74758;50.066;20.008;2023-12-20T01:24:57;4.50;;;3.80;;
84521;SDS011;74758;50.066;20.008;2023-12-20T01:27:00;4.60;;;3.90;;
84521;SDS011;74758;50.066;20.008;2023-12-20T01:29:02;4.90;;;4.00;;
84521;SDS011;74758;50.066;20.008;2023-12-20T01:31:06;4.50;;;3.90;;
84521;SDS011;74758;50.066;20.008;2023-12-20T01:33:09;4.70;;;4.20;;
84521;SDS011;74758;50.066;20.008;2023-12-20T01:35:11;4.50;;;2.80;;
84521;SDS011;74758;50.066;20.008;2023-12-20T01:37:15;4.80;;;3.80;;
84521;SDS011;74758;50.066;20.008;2023-12-20T01:39:17;4.80;;;3.90;;
84521;SDS011;74758;50.066;20.008;2023-12-20T01:41:30;4.60;;;3.70;;
84521;SDS011;74758;50.066;20.008;2023-12-20T01:43:32;4.30;;;3.50;;
84521;SDS011;74758;50.066;20.008;2023-12-20T01:45:48;4.20;;;3.30;;
84521;SDS011;74758;50.066;20.008;2023-12-20T01:47:50;4.10;;;3.60;;
84521;SDS011;74758;50.066;20.008;2023-12-20T01:49:53;5.70;;;3.90;;
84521;SDS011;74758;50.066;20.008;2023-12-20T01:51:55;4.60;;;3.60;;
84521;SDS011;74758;50.066;20.008;2023-12-20T01:53:57;4.70;;;3.90;;
84521;SDS011;74758;50.066;20.008;2023-12-20T01:56:01;4.50;;;4.00;;
84521;SDS011;74758;50.066;20.008;2023-12-20T01:58:03;5.40;;;3.90;;
84521;SDS011;74758;50.066;20.008;2023-12-20T02:00:06;5.00;;;3.60;;
84521;SDS011;74758;50.066;20.008;2023-12-20T02:02:11;5.20;;;4.70;;
84521;SDS011;74758;50.066;20.008;2023-12-20T02:06:17;4.10;;;3.20;;
84521;SDS011;74758;50.066;20.008;2023-12-20T02:10:22;3.70;;;3.10;;
84521;SDS011;74758;50.066;20.008;2023-12-20T02:12:26;4.30;;;3.30;;
84521;SDS011;74758;50.066;20.008;2023-12-20T02:14:28;3.30;;;2.90;;
84521;SDS011;74758;50.066;20.008;2023-12-20T02:16:30;6.30;;;5.80;;
84521;SDS011;74758;50.066;20.008;2023-12-20T02:18:33;3.20;;;2.10;;
84521;SDS011;74758;50.066;20.008;2023-12-20T02:20:35;2.50;;;1.70;;
84521;SDS011;74758;50.066;20.008;2023-12-20T02:22:38;4.30;;;3.00;;
84521;SDS011;74758;50.066;20.008;2023-12-20T02:24:40;4.00;;;3.50;;
84521;SDS011;74758;50.066;20.008;2023-12-20T02:26:42;3.60;;;3.10;;
84521;SDS011;74758;50.066;20.008;2023-12-20T02:28:47;4.00;;;3.10;;
84521;SDS011;74758;50.066;20.008;2023-12-20T02:30:49;4.00;;;3.10;;
84521;SDS011;74758;50.066;20.008;2023-12-20T02:32:51;4.30;;;3.90;;
84521;SDS011;74758;50.066;20.008;2023-12-20T02:34:54;4.50;;;3.60;;
84521;SDS011;74758;50.066;20.008;2023-12-20T02:36:56;4.30;;;3.80;;
84521;SDS011;74758;50.066;20.008;2023-12-20T02:38:58;4.40;;;2.90;;
84521;SDS011;74758;50.066;20.008;2023-12-20T02:41:00;3.70;;;3.00;;
84521;SDS011;74758;50.066;20.008;2023-12-20T02:43:01;4.70;;;3.80;;
84521;SDS011;74758;50.066;20.008;2023-12-20T02:45:04;4.00;;;3.20;;
84521;SDS011;74758;50.066;20.008;2023-12-20T02:47:06;4.70;;;4.20;;
84521;SDS011;74758;50.066;20.008;2023-12-20T02:49:09;4.70;;;3.80;;
84521;SDS011;74758;50.066;20.008;2023-12-20T02:51:11;3.80;;;3.30;;
84521;SDS011;74758;50.066;20.008;2023-12-20T02:53:14;5.80;;;5.30;;
84521;SDS011;74758;50.066;20.008;2023-12-20T02:55:16;4.10;;;3.30;;
84521;SDS011;74758;50.066;20.008;2023-12-20T02:57:19;3.70;;;3.30;;
84521;SDS011;74758;50.066;20.008;2023-12-20T02:59:21;4.00;;;2.90;;
84521;SDS011;74758;50.066;20.008;2023-12-20T03:01:23;4.70;;;3.40;;
84521;SDS011;74758;50.066;20.008;2023-12-20T03:03:26;4.30;;;3.20;;
84521;SDS011;74758;50.066;20.008;2023-12-20T03:05:28;4.40;;;3.40;;
84521;SDS011;74758;50.066;20.008;2023-12-20T03:07:30;3.80;;;3.40;;
84521;SDS011;74758;50.066;20.008;2023-12-20T03:09:32;4.90;;;3.10;;
84521;SDS011;74758;50.066;20.008;2023-12-20T03:11:54;3.80;;;3.30;;
84521;SDS011;74758;50.066;20.008;2023-12-20T03:13:56;4.00;;;3.30;;
84521;SDS011;74758;50.066;20.008;2023-12-20T03:15:59;4.20;;;3.30;;
84521;SDS011;74758;50.066;20.008;2023-12-20T03:18:02;3.70;;;2.90;;
84521;SDS011;74758;50.066;20.008;2023-12-20T03:20:05;4.00;;;3.20;;
84521;SDS011;74758;50.066;20.008;2023-12-20T03:22:08;4.10;;;3.30;;
84521;SDS011;74758;50.066;20.008;2023-12-20T03:24:10;3.70;;;2.90;;
84521;SDS011;74758;50.066;20.008;2023-12-20T03:26:13;4.10;;;3.40;;
84521;SDS011;74758;50.066;20.008;2023-12-20T03:28:16;4.30;;;3.30;;
84521;SDS011;74758;50.066;20.008;2023-12-20T03:30:19;3.60;;;2.70;;
84521;SDS011;74758;50.066;20.008;2023-12-20T03:32:22;3.60;;;3.00;;
84521;SDS011;74758;50.066;20.008;2023-12-20T03:34:26;3.50;;;2.60;;
84521;SDS011;74758;50.066;20.008;2023-12-20T03:36:29;3.70;;;3.40;;
84521;SDS011;74758;50.066;20.008;2023-12-20T03:38:32;3.60;;;3.00;;
84521;SDS011;74758;50.066;20.008;2023-12-20T03:40:34;3.20;;;2.90;;
84521;SDS011;74758;50.066;20.008;2023-12-20T03:42:37;3.00;;;2.00;;
84521;SDS011;74758;50.066;20.008;2023-12-20T03:44:40;3.60;;;2.00;;
84521;SDS011;74758;50.066;20.008;2023-12-20T03:46:42;3.30;;;2.10;;
84521;SDS011;74758;50.066;20.008;2023-12-20T03:48:44;3.10;;;2.50;;
84521;SDS011;74758;50.066;20.008;2023-12-20T03:50:46;3.00;;;2.20;;
84521;SDS011;74758;50.066;20.008;2023-12-20T03:52:48;3.10;;;2.30;;
84521;SDS011;74758;50.066;20.008;2023-12-20T03:54:50;4.60;;;2.00;;
84521;SDS011;74758;50.066;20.008;2023-12-20T03:56:52;2.80;;;1.90;;
84521;SDS011;74758;50.066;20.008;2023-12-20T03:58:54;2.50;;;2.20;;
84521;SDS011;74758;50.066;20.008;2023-12-20T04:00:57;2.60;;;2.30;;
84521;SDS011;74758;50.066;20.008;2023-12-20T04:02:59;2.00;;;1.40;;
84521;SDS011;74758;50.066;20.008;2023-12-20T04:05:01;2.10;;;1.70;;
84521;SDS011;74758;50.066;20.008;2023-12-20T04:07:03;2.60;;;2.30;;
84521;SDS011;74758;50.066;20.008;2023-12-20T04:09:05;2.80;;;2.40;;
84521;SDS011;74758;50.066;20.008;2023-12-20T04:11:07;2.50;;;1.90;;
84521;SDS011;74758;50.066;20.008;2023-12-20T04:13:10;2.20;;;1.90;;
84521;SDS011;74758;50.066;20.008;2023-12-20T04:15:12;2.40;;;1.70;;
84521;SDS011;74758;50.066;20.008;2023-12-20T04:17:15;2.10;;;1.90;;
84521;SDS011;74758;50.066;20.008;2023-12-20T04:19:17;3.10;;;1.90;;
84521;SDS011;74758;50.066;20.008;2023-12-20T04:21:19;2.10;;;1.60;;
84521;SDS011;74758;50.066;20.008;2023-12-20T04:23:21;2.90;;;1.70;;
84521;SDS011;74758;50.066;20.008;2023-12-20T04:25:23;2.20;;;1.90;;
84521;SDS011;74758;50.066;20.008;2023-12-20T04:27:25;2.30;;;1.80;;
84521;SDS011;74758;50.066;20.008;2023-12-20T04:29:27;2.20;;;1.90;;
84521;SDS011;74758;50.066;20.008;2023-12-20T04:31:28;2.20;;;1.40;;
84521;SDS011;74758;50.066;20.008;2023-12-20T04:33:30;2.40;;;1.70;;
84521;SDS011;74758;50.066;20.008;2023-12-20T04:35:32;2.00;;;1.60;;
84521;SDS011;74758;50.066;20.008;2023-12-20T04:37:34;2.10;;;1.90;;
84521;SDS011;74758;50.066;20.008;2023-12-20T04:39:36;2.10;;;1.40;;
84521;SDS011;74758;50.066;20.008;2023-12-20T04:41:38;2.10;;;1.30;;
84521;SDS011;74758;50.066;20.008;2023-12-20T04:43:40;2.30;;;1.70;;
84521;SDS011;74758;50.066;20.008;2023-12-20T04:45:42;3.10;;;2.00;;
84521;SDS011;74758;50.066;20.008;2023-12-20T04:47:44;2.30;;;2.10;;
84521;SDS011;74758;50.066;20.008;2023-12-20T04:49:49;1.70;;;1.40;;
84521;SDS011;74758;50.066;20.008;2023-12-20T04:51:51;2.40;;;1.40;;
84521;SDS011;74758;50.066;20.008;2023-12-20T04:53:53;2.20;;;1.60;;
84521;SDS011;74758;50.066;20.008;2023-12-20T04:55:55;2.30;;;2.00;;
84521;SDS011;74758;50.066;20.008;2023-12-20T04:57:56;2.20;;;1.50;;
84521;SDS011;74758;50.066;20.008;2023-12-20T04:59:59;2.30;;;2.00;;
84521;SDS011;74758;50.066;20.008;2023-12-20T05:02:00;1.90;;;1.50;;
84521;SDS011;74758;50.066;20.008;2023-12-20T05:04:02;1.80;;;1.20;;
84521;SDS011;74758;50.066;20.008;2023-12-20T05:06:04;1.90;;;1.40;;
84521;SDS011;74758;50.066;20.008;2023-12-20T05:08:06;2.40;;;1.70;;
84521;SDS011;74758;50.066;20.008;2023-12-20T05:10:08;2.50;;;1.70;;
84521;SDS011;74758;50.066;20.008;2023-12-20T05:12:11;2.80;;;2.60;;
84521;SDS011;74758;50.066;20.008;2023-12-20T05:14:15;1.90;;;1.60;;
84521;SDS011;74758;50.066;20.008;2023-12-20T05:16:18;1.70;;;1.20;;
84521;SDS011;74758;50.066;20.008;2023-12-20T05:18:21;1.70;;;1.10;;
84521;SDS011;74758;50.066;20.008;2023-12-20T05:20:24;1.90;;;1.70;;
84521;SDS011;74758;50.066;20.008;2023-12-20T05:22:26;1.90;;;1.20;;
84521;SDS011;74758;50.066;20.008;2023-12-20T05:24:29;2.30;;;1.60;;
84521;SDS011;74758;50.066;20.008;2023-12-20T05:26:31;1.70;;;1.40;;
84521;SDS011;74758;50.066;20.008;2023-12-20T05:28:32;2.40;;;1.40;;
84521;SDS011;74758;50.066;20.008;2023-12-20T05:30:34;1.70;;;1.30;;
84521;SDS011;74758;50.066;20.008;2023-12-20T05:32:36;1.80;;;1.10;;
84521;SDS011;74758;50.066;20.008;2023-12-20T05:34:38;1.70;;;1.10;;
84521;SDS011;74758;50.066;20.008;2023-12-20T05:36:40;1.80;;;1.40;;
84521;SDS011;74758;50.066;20.008;2023-12-20T05:38:42;2.50;;;2.30;;
84521;SDS011;74758;50.066;20.008;2023-12-20T05:40:44;1.70;;;1.20;;
84521;SDS011;74758;50.066;20.008;2023-12-20T05:42:46;2.00;;;1.50;;
84521;SDS011;74758;50.066;20.008;2023-12-20T05:44:47;1.80;;;1.60;;
84521;SDS011;74758;50.066;20.008;2023-12-20T05:46:52;1.90;;;1.50;;
84521;SDS011;74758;50.066;20.008;2023-12-20T05:48:54;2.20;;;2.00;;
84521;SDS011;74758;50.066;20.008;2023-12-20T05:50:56;1.80;;;1.40;;
84521;SDS011;74758;50.066;20.008;2023-12-20T05:52:59;1.70;;;1.50;;
84521;SDS011;74758;50.066;20.008;2023-12-20T05:55:00;2.40;;;2.20;;
84521;SDS011;74758;50.066;20.008;2023-12-20T05:57:03;1.70;;;1.30;;
84521;SDS011;74758;50.066;20.008;2023-12-20T05:59:05;1.90;;;1.70;;
84521;SDS011;74758;50.066;20.008;2023-12-20T06:01:07;2.00;;;1.80;;
84521;SDS011;74758;50.066;20.008;2023-12-20T06:03:10;2.10;;;1.80;;
84521;SDS011;74758;50.066;20.008;2023-12-20T06:05:12;2.10;;;1.90;;
84521;SDS011;74758;50.066;20.008;2023-12-20T06:07:16;1.90;;;1.70;;
84521;SDS011;74758;50.066;20.008;2023-12-20T06:09:19;1.80;;;1.40;;
84521;SDS011;74758;50.066;20.008;2023-12-20T06:11:22;1.80;;;1.50;;
84521;SDS011;74758;50.066;20.008;2023-12-20T06:13:24;1.90;;;1.40;;
84521;SDS011;74758;50.066;20.008;2023-12-20T06:15:26;2.00;;;1.30;;
84521;SDS011;74758;50.066;20.008;2023-12-20T06:17:29;2.00;;;1.60;;
84521;SDS011;74758;50.066;20.008;2023-12-20T06:19:32;2.60;;;2.00;;
84521;SDS011;74758;50.066;20.008;2023-12-20T06:21:34;1.90;;;1.60;;
84521;SDS011;74758;50.066;20.008;2023-12-20T06:23:37;1.60;;;1.00;;
84521;SDS011;74758;50.066;20.008;2023-12-20T06:25:40;2.00;;;1.80;;
84521;SDS011;74758;50.066;20.008;2023-12-20T06:27:42;2.00;;;1.40;;
84521;SDS011;74758;50.066;20.008;2023-12-20T06:29:46;1.90;;;1.30;;
84521;SDS011;74758;50.066;20.008;2023-12-20T06:31:49;2.30;;;2.10;;
84521;SDS011;74758;50.066;20.008;2023-12-20T06:33:53;1.80;;;1.40;;
84521;SDS011;74758;50.066;20.008;2023-12-20T06:35:59;2.00;;;1.70;;
84521;SDS011;74758;50.066;20.008;2023-12-20T06:38:03;2.00;;;1.60;;
84521;SDS011;74758;50.066;20.008;2023-12-20T06:40:06;2.90;;;1.80;;
84521;SDS011;74758;50.066;20.008;2023-12-20T06:42:18;1.70;;;1.50;;
84521;SDS011;74758;50.066;20.008;2023-12-20T06:44:21;1.80;;;1.10;;
84521;SDS011;74758;50.066;20.008;2023-12-20T06:46:23;2.60;;;2.40;;
84521;SDS011;74758;50.066;20.008;2023-12-20T06:48:27;2.20;;;1.60;;
84521;SDS011;74758;50.066;20.008;2023-12-20T06:50:30;1.90;;;1.70;;
84521;SDS011;74758;50.066;20.008;2023-12-20T06:52:33;2.60;;;2.10;;
84521;SDS011;74758;50.066;20.008;2023-12-20T06:54:36;2.00;;;1.50;;
84521;SDS011;74758;50.066;20.008;2023-12-20T06:58:42;3.10;;;1.90;;
84521;SDS011;74758;50.066;20.008;2023-12-20T07:02:51;2.20;;;1.50;;
84521;SDS011;74758;50.066;20.008;2023-12-20T07:04:54;3.00;;;1.90;;
84521;SDS011;74758;50.066;20.008;2023-12-20T07:06:57;2.20;;;2.00;;
84521;SDS011;74758;50.066;20.008;2023-12-20T07:09:02;2.20;;;1.90;;
84521;SDS011;74758;50.066;20.008;2023-12-20T07:11:05;2.60;;;2.10;;
84521;SDS011;74758;50.066;20.008;2023-12-20T07:13:07;2.40;;;1.70;;
84521;SDS011;74758;50.066;20.008;2023-12-20T07:15:10;2.20;;;1.80;;
84521;SDS011;74758;50.066;20.008;2023-12-20T07:17:13;3.00;;;2.70;;
84521;SDS011;74758;50.066;20.008;2023-12-20T07:19:17;2.50;;;2.10;;
84521;SDS011;74758;50.066;20.008;2023-12-20T07:21:19;3.70;;;3.40;;
84521;SDS011;74758;50.066;20.008;2023-12-20T07:23:21;2.90;;;2.00;;
84521;SDS011;74758;50.066;20.008;2023-12-20T07:25:23;2.40;;;1.80;;
84521;SDS011;74758;50.066;20.008;2023-12-20T07:27:27;2.40;;;2.00;;
84521;SDS011;74758;50.066;20.008;2023-12-20T07:29:29;2.10;;;1.80;;
84521;SDS011;74758;50.066;20.008;2023-12-20T07:31:32;2.20;;;1.80;;
84521;SDS011;74758;50.066;20.008;2023-12-20T07:33:35;2.10;;;1.90;;
84521;SDS011;74758;50.066;20.008;2023-12-20T07:35:40;3.30;;;2.40;;
84521;SDS011;74758;50.066;20.008;2023-12-20T07:37:43;2.40;;;2.10;;
84521;SDS011;74758;50.066;20.008;2023-12-20T07:39:47;2.50;;;2.20;;
84521;SDS011;74758;50.066;20.008;2023-12-20T07:41:49;2.60;;;2.10;;
84521;SDS011;74758;50.066;20.008;2023-12-20T07:43:52;2.10;;;1.70;;
84521;SDS011;74758;50.066;20.008;2023-12-20T07:45:55;2.90;;;2.60;;
84521;SDS011;74758;50.066;20.008;2023-12-20T07:47:58;2.10;;;1.90;;
84521;SDS011;74758;50.066;20.008;2023-12-20T07:50:00;2.00;;;1.80;;
84521;SDS011;74758;50.066;20.008;2023-12-20T07:52:03;2.40;;;1.90;;
84521;SDS011;74758;50.066;20.008;2023-12-20T07:54:06;1.80;;;1.50;;
84521;SDS011;74758;50.066;20.008;2023-12-20T07:56:16;2.50;;;1.80;;
84521;SDS011;74758;50.066;20.008;2023-12-20T08:00:24;2.40;;;1.90;;
84521;SDS011;74758;50.066;20.008;2023-12-20T08:02:26;2.50;;;2.10;;
84521;SDS011;74758;50.066;20.008;2023-12-20T08:04:29;2.50;;;2.10;;
84521;SDS011;74758;50.066;20.008;2023-12-20T08:06:31;2.20;;;1.90;;
84521;SDS011;74758;50.066;20.008;2023-12-20T08:08:34;2.00;;;1.50;;
84521;SDS011;74758;50.066;20.008;2023-12-20T08:10:37;3.00;;;2.50;;
84521;SDS011;74758;50.066;20.008;2023-12-20T08:12:42;2.90;;;2.50;;
84521;SDS011;74758;50.066;20.008;2023-12-20T08:14:57;2.40;;;2.20;;
84521;SDS011;74758;50.066;20.008;2023-12-20T08:16:58;2.40;;;2.00;;
84521;SDS011;74758;50.066;20.008;2023-12-20T08:19:01;2.20;;;1.90;;
84521;SDS011;74758;50.066;20.008;2023-12-20T08:21:02;2.30;;;2.10;;
84521;SDS011;74758;50.066;20.008;2023-12-20T08:23:05;2.80;;;2.10;;
84521;SDS011;74758;50.066;20.008;2023-12-20T08:25:08;2.80;;;2.30;;
84521;SDS011;74758;50.066;20.008;2023-12-20T08:27:10;2.90;;;2.40;;
84521;SDS011;74758;50.066;20.008;2023-12-20T08:29:13;2.70;;;2.40;;
84521;SDS011;74758;50.066;20.008;2023-12-20T08:31:16;2.70;;;2.30;;
84521;SDS011;74758;50.066;20.008;2023-12-20T08:33:20;2.50;;;2.10;;
84521;SDS011;74758;50.066;20.008;2023-12-20T08:35:22;2.80;;;1.60;;
84521;SDS011;74758;50.066;20.008;2023-12-20T08:37:26;2.70;;;2.40;;
84521;SDS011;74758;50.066;20.008;2023-12-20T08:39:28;2.70;;;2.40;;
84521;SDS011;74758;50.066;20.008;2023-12-20T08:41:32;2.90;;;2.60;;
84521;SDS011;74758;50.066;20.008;2023-12-20T08:43:34;2.60;;;2.10;;
84521;SDS011;74758;50.066;20.008;2023-12-20T08:45:37;2.70;;;2.10;;
84521;SDS011;74758;50.066;20.008;2023-12-20T08:47:41;2.50;;;2.20;;
84521;SDS011;74758;50.066;20.008;2023-12-20T08:49:45;2.90;;;2.50;;
84521;SDS011;74758;50.066;20.008;2023-12-20T08:53:51;3.10;;;2.70;;
84521;SDS011;74758;50.066;20.008;2023-12-20T08:55:53;2.80;;;2.00;;
84521;SDS011;74758;50.066;20.008;2023-12-20T08:57:56;3.40;;;3.10;;
84521;SDS011;74758;50.066;20.008;2023-12-20T08:59:58;2.60;;;2.20;;
84521;SDS011;74758;50.066;20.008;2023-12-20T09:02:01;2.50;;;2.20;;
84521;SDS011;74758;50.066;20.008;2023-12-20T09:04:03;2.90;;;2.60;;
84521;SDS011;74758;50.066;20.008;2023-12-20T09:06:06;2.50;;;1.80;;
84521;SDS011;74758;50.066;20.008;2023-12-20T09:08:10;2.60;;;1.90;;
84521;SDS011;74758;50.066;20.008;2023-12-20T09:10:12;2.70;;;2.50;;
84521;SDS011;74758;50.066;20.008;2023-12-20T09:12:15;2.40;;;1.60;;
84521;SDS011;74758;50.066;20.008;2023-12-20T09:14:17;2.90;;;2.50;;
84521;SDS011;74758;50.066;20.008;2023-12-20T09:16:20;3.30;;;3.00;;
84521;SDS011;74758;50.066;20.008;2023-12-20T09:18:22;2.30;;;1.80;;
84521;SDS011;74758;50.066;20.008;2023-12-20T09:20:24;3.00;;;2.70;;
84521;SDS011;74758;50.066;20.008;2023-12-20T09:22:27;2.90;;;2.30;;
84521;SDS011;74758;50.066;20.008;2023-12-20T09:24:30;2.30;;;2.00;;
84521;SDS011;74758;50.066;20.008;2023-12-20T09:26:32;2.50;;;2.10;;
84521;SDS011;74758;50.066;20.008;2023-12-20T09:28:33;2.50;;;2.20;;
84521;SDS011;74758;50.066;20.008;2023-12-20T09:30:38;2.50;;;2.00;;
84521;SDS011;74758;50.066;20.008;2023-12-20T09:32:42;2.50;;;2.30;;
84521;SDS011;74758;50.066;20.008;2023-12-20T09:34:47;3.00;;;2.70;;
84521;SDS011;74758;50.066;20.008;2023-12-20T09:36:50;2.80;;;2.40;;
84521;SDS011;74758;50.066;20.008;2023-12-20T09:38:52;3.10;;;2.70;;
84521;SDS011;74758;50.066;20.008;2023-12-20T09:40:53;3.00;;;2.70;;
84521;SDS011;74758;50.066;20.008;2023-12-20T09:43:09;2.00;;;1.80;;
84521;SDS011;74758;50.066;20.008;2023-12-20T09:45:13;2.50;;;2.00;;
84521;SDS011;74758;50.066;20.008;2023-12-20T09:47:18;2.20;;;2.00;;
84521;SDS011;74758;50.066;20.008;2023-12-20T09:49:27;2.70;;;2.30;;
84521;SDS011;74758;50.066;20.008;2023-12-20T09:51:29;2.30;;;1.90;;
84521;SDS011;74758;50.066;20.008;2023-12-20T09:53:32;2.90;;;2.60;;
84521;SDS011;74758;50.066;20.008;2023-12-20T09:55:38;2.90;;;2.60;;
84521;SDS011;74758;50.066;20.008;2023-12-20T09:57:42;2.50;;;2.10;;
84521;SDS011;74758;50.066;20.008;2023-12-20T10:01:47;2.30;;;1.80;;
84521;SDS011;74758;50.066;20.008;2023-12-20T10:03:50;2.50;;;2.30;;
84521;SDS011;74758;50.066;20.008;2023-12-20T10:05:56;2.50;;;2.00;;
84521;SDS011;74758;50.066;20.008;2023-12-20T10:08:00;2.70;;;2.40;;
84521;SDS011;74758;50.066;20.008;2023-12-20T10:10:04;3.30;;;2.90;;
84521;SDS011;74758;50.066;20.008;2023-12-20T10:12:08;2.50;;;2.20;;
84521;SDS011;74758;50.066;20.008;2023-12-20T10:14:11;2.10;;;1.90;;
84521;SDS011;74758;50.066;20.008;2023-12-20T10:16:14;3.30;;;3.00;;
84521;SDS011;74758;50.066;20.008;2023-12-20T10:18:17;2.40;;;2.00;;
84521;SDS011;74758;50.066;20.008;2023-12-20T10:20:19;2.00;;;1.50;;
84521;SDS011;74758;50.066;20.008;2023-12-20T10:22:21;1.90;;;1.70;;
84521;SDS011;74758;50.066;20.008;2023-12-20T10:26:28;4.60;;;2.30;;
84521;SDS011;74758;50.066;20.008;2023-12-20T10:28:34;2.50;;;2.10;;
84521;SDS011;74758;50.066;20.008;2023-12-20T10:30:38;2.70;;;2.20;;
84521;SDS011;74758;50.066;20.008;2023-12-20T10:32:41;2.20;;;1.80;;
84521;SDS011;74758;50.066;20.008;2023-12-20T10:34:43;2.30;;;2.10;;
84521;SDS011;74758;50.066;20.008;2023-12-20T10:36:45;2.40;;;1.60;;
84521;SDS011;74758;50.066;20.008;2023-12-20T10:38:48;2.10;;;1.80;;
84521;SDS011;74758;50.066;20.008;2023-12-20T10:40:54;2.10;;;1.80;;
84521;SDS011;74758;50.066;20.008;2023-12-20T10:43:02;1.70;;;1.60;;
84521;SDS011;74758;50.066;20.008;2023-12-20T10:45:04;2.10;;;1.80;;
84521;SDS011;74758;50.066;20.008;2023-12-20T10:47:06;2.10;;;1.70;;
84521;SDS011;74758;50.066;20.008;2023-12-20T10:49:10;2.40;;;1.90;;
84521;SDS011;74758;50.066;20.008;2023-12-20T10:51:13;2.20;;;1.60;;
84521;SDS011;74758;50.066;20.008;2023-12-20T10:53:18;2.50;;;2.00;;
84521;SDS011;74758;50.066;20.008;2023-12-20T10:57:24;2.40;;;2.20;;
84521;SDS011;74758;50.066;20.008;2023-12-20T10:59:30;2.40;;;1.70;;
84521;SDS011;74758;50.066;20.008;2023-12-20T11:01:35;2.40;;;2.00;;
84521;SDS011;74758;50.066;20.008;2023-12-20T11:03:42;2.70;;;2.30;;
84521;SDS011;74758;50.066;20.008;2023-12-20T11:05:49;2.20;;;1.60;;
84521;SDS011;74758;50.066;20.008;2023-12-20T11:08:08;2.30;;;1.70;;
84521;SDS011;74758;50.066;20.008;2023-12-20T11:10:16;2.50;;;1.60;;
84521;SDS011;74758;50.066;20.008;2023-12-20T11:12:24;2.10;;;1.60;;
84521;SDS011;74758;50.066;20.008;2023-12-20T11:14:50;2.80;;;2.20;;
84521;SDS011;74758;50.066;20.008;2023-12-20T11:17:09;2.30;;;2.00;;
84521;SDS011;74758;50.066;20.008;2023-12-20T11:19:18;1.70;;;1.20;;
84521;SDS011;74758;50.066;20.008;2023-12-20T11:21:20;2.20;;;1.90;;
84521;SDS011;74758;50.066;20.008;2023-12-20T11:23:22;2.30;;;2.10;;
84521;SDS011;74758;50.066;20.008;2023-12-20T11:25:24;2.40;;;2.20;;
84521;SDS011;74758;50.066;20.008;2023-12-20T11:27:26;1.80;;;1.60;;
84521;SDS011;74758;50.066;20.008;2023-12-20T11:29:34;2.10;;;1.80;;
84521;SDS011;74758;50.066;20.008;2023-12-20T11:31:42;2.90;;;2.70;;
84521;SDS011;74758;50.066;20.008;2023-12-20T11:33:44;2.00;;;1.70;;
84521;SDS011;74758;50.066;20.008;2023-12-20T11:35:50;2.00;;;1.70;;
84521;SDS011;74758;50.066;20.008;2023-12-20T11:37:52;2.10;;;1.80;;
84521;SDS011;74758;50.066;20.008;2023-12-20T11:39:55;1.60;;;1.50;;
84521;SDS011;74758;50.066;20.008;2023-12-20T11:42:06;1.70;;;1.60;;
84521;SDS011;74758;50.066;20.008;2023-12-20T11:44:09;2.00;;;1.70;;
84521;SDS011;74758;50.066;20.008;2023-12-20T11:46:12;1.40;;;1.30;;
84521;SDS011;74758;50.066;20.008;2023-12-20T11:48:14;2.00;;;1.80;;
84521;SDS011;74758;50.066;20.008;2023-12-20T11:50:17;2.20;;;2.00;;
84521;SDS011;74758;50.066;20.008;2023-12-20T11:52:20;2.20;;;2.00;;
84521;SDS011;74758;50.066;20.008;2023-12-20T11:54:22;3.70;;;3.40;;
84521;SDS011;74758;50.066;20.008;2023-12-20T11:56:24;1.70;;;1.50;;
84521;SDS011;74758;50.066;20.008;2023-12-20T11:58:25;2.40;;;2.20;;
84521;SDS011;74758;50.066;20.008;2023-12-20T12:00:28;1.80;;;1.40;;
84521;SDS011;74758;50.066;20.008;2023-12-20T12:02:31;2.20;;;1.80;;
84521;SDS011;74758;50.066;20.008;2023-12-20T12:04:34;2.00;;;1.60;;
84521;SDS011;74758;50.066;20.008;2023-12-20T12:06:39;1.50;;;1.20;;
84521;SDS011;74758;50.066;20.008;2023-12-20T12:08:41;2.20;;;1.60;;
84521;SDS011;74758;50.066;20.008;2023-12-20T12:10:44;2.40;;;1.60;;
84521;SDS011;74758;50.066;20.008;2023-12-20T12:12:46;1.90;;;1.50;;
84521;SDS011;74758;50.066;20.008;2023-12-20T12:14:49;2.30;;;1.80;;
84521;SDS011;74758;50.066;20.008;2023-12-20T12:18:58;2.30;;;1.80;;
84521;SDS011;74758;50.066;20.008;2023-12-20T12:21:01;2.30;;;2.10;;
84521;SDS011;74758;50.066;20.008;2023-12-20T12:23:13;1.70;;;1.20;;
84521;SDS011;74758;50.066;20.008;2023-12-20T12:27:19;1.60;;;1.10;;
84521;SDS011;74758;50.066;20.008;2023-12-20T12:31:26;1.60;;;1.50;;
84521;SDS011;74758;50.066;20.008;2023-12-20T12:33:29;2.00;;;1.80;;
84521;SDS011;74758;50.066;20.008;2023-12-20T12:35:32;2.00;;;1.80;;
84521;SDS011;74758;50.066;20.008;2023-12-20T12:37:37;2.10;;;1.90;;
84521;SDS011;74758;50.066;20.008;2023-12-20T12:39:41;2.00;;;1.70;;